createdAt,value
2023-05-21T00:01:23.659Z,101493.09
2023-05-21T00:06:26.263Z,101495.97
2023-05-21T00:11:28.435Z,101493.44
2023-05-21T00:16:31.652Z,101486.28
2023-05-21T00:21:33.995Z,101482.97
2023-05-21T00:26:36.180Z,101483.03
2023-05-21T00:31:39.344Z,101489.53
2023-05-21T00:36:41.523Z,101480.81
2023-05-21T00:41:43.691Z,101480.16
2023-05-21T00:46:47.030Z,101478.63
2023-05-21T00:51:48.865Z,101482.47
2023-05-21T00:56:51.591Z,101472.91
2023-05-21T01:01:56.540Z,101468.66
2023-05-21T01:06:58.965Z,101465.31
2023-05-21T01:12:01.734Z,101452.16
2023-05-21T01:17:06.623Z,101457.56
2023-05-21T01:22:08.907Z,101441.59
2023-05-21T01:27:12.569Z,101449.69
2023-05-21T01:32:24.456Z,101448.75
2023-05-21T01:37:31.380Z,101446.09
2023-05-21T01:42:39.257Z,101442.72
2023-05-21T01:47:42.270Z,101434.84
2023-05-21T01:52:50.322Z,101438.56
2023-05-21T01:57:55.507Z,101437.78
2023-05-21T02:02:57.652Z,101431.69
2023-05-21T02:08:01.762Z,101431.75
2023-05-21T02:13:05.278Z,101424.75
2023-05-21T02:18:07.500Z,101419.50
2023-05-21T02:23:09.676Z,101413.25
2023-05-21T02:28:12.810Z,101415.94
2023-05-21T02:33:16.413Z,101413.38
2023-05-21T02:38:18.553Z,101416.91
2023-05-21T02:43:22.094Z,101407.16
2023-05-21T02:48:23.821Z,101409.66
2023-05-21T02:53:26.273Z,101402.41
2023-05-21T02:58:30.251Z,101399.59
2023-05-21T03:03:32.452Z,101395.97
2023-05-21T03:08:35.055Z,101401.16
2023-05-21T03:13:38.416Z,101396.41
2023-05-21T03:18:40.678Z,101394.66
2023-05-21T03:23:42.820Z,101388.41
2023-05-21T03:28:46.292Z,101393.63
2023-05-21T03:33:48.555Z,101394.41
2023-05-21T03:38:50.705Z,101397.69
2023-05-21T03:43:54.251Z,101387.22
2023-05-21T03:48:56.470Z,101409.25
2023-05-21T03:53:59.035Z,101402.06
2023-05-21T03:59:02.224Z,101394.72
2023-05-21T04:04:04.459Z,101403.41
2023-05-21T04:09:06.876Z,101403.88
2023-05-21T04:14:10.167Z,101398.13
2023-05-21T04:19:11.991Z,101400.47
2023-05-21T04:24:14.341Z,101407.88
2023-05-21T04:29:18.038Z,101413.59
2023-05-21T04:34:19.967Z,101417.22
2023-05-21T04:39:22.088Z,101423.47
2023-05-21T04:44:25.239Z,101419.25
2023-05-21T04:49:27.462Z,101417.34
2023-05-21T04:54:29.590Z,101422.22
2023-05-21T04:59:32.721Z,101423.09
2023-05-21T05:04:34.878Z,101431.69
2023-05-21T05:09:37.537Z,101423.44
2023-05-21T05:14:41.022Z,101426.75
2023-05-21T05:19:43.229Z,101428.50
2023-05-21T05:24:45.351Z,101417.72
2023-05-21T05:29:48.489Z,101417.03
2023-05-21T05:34:50.229Z,101418.53
2023-05-21T05:39:52.419Z,101420.88
2023-05-21T05:44:56.183Z,101419.06
2023-05-21T05:49:58.322Z,101420.69
2023-05-21T05:55:00.453Z,101415.31
2023-05-21T06:00:04.615Z,101414.16
2023-05-21T06:05:07.687Z,101417.50
2023-05-21T06:10:10.875Z,101418.16
2023-05-21T06:15:14.501Z,101410.03
2023-05-21T06:20:16.744Z,101411.59
2023-05-21T06:25:18.663Z,101410.09
2023-05-21T06:30:21.865Z,101412.88
2023-05-21T06:35:23.913Z,101418.31
2023-05-21T06:40:26.173Z,101413.09
2023-05-21T06:45:29.776Z,101412.06
2023-05-21T06:50:31.597Z,101415.66
2023-05-21T06:55:34.099Z,101408.16
2023-05-21T07:00:37.572Z,101400.78
2023-05-21T07:05:40.120Z,101411.84
2023-05-21T07:10:42.641Z,101405.13
2023-05-21T07:15:45.831Z,101401.06
2023-05-21T07:20:48.473Z,101401.56
2023-05-21T07:25:50.427Z,101403.63
2023-05-21T07:30:53.549Z,101392.75
2023-05-21T07:35:55.663Z,101397.84
2023-05-21T07:40:57.407Z,101399.44
2023-05-21T07:46:01.051Z,101388.72
2023-05-21T07:51:03.721Z,101383.44
2023-05-21T07:56:06.604Z,101379.44
2023-05-21T08:01:10.247Z,101383.38
2023-05-21T08:06:12.298Z,101378.72
2023-05-21T08:11:15.732Z,101374.03
2023-05-21T08:16:19.369Z,101385.38
2023-05-21T08:21:21.242Z,101377.09
2023-05-21T08:26:23.005Z,101370.13
2023-05-21T08:31:26.188Z,101381.81
2023-05-21T08:36:28.653Z,101371.44
2023-05-21T08:41:34.159Z,101371.66
2023-05-21T08:46:41.010Z,101371.78
2023-05-21T08:51:44.382Z,101381.72
2023-05-21T08:56:47.618Z,101381.38
2023-05-21T09:01:52.096Z,101375.66
2023-05-21T09:06:54.757Z,101370.28
2023-05-21T09:11:56.718Z,101369.06
2023-05-21T09:17:00.007Z,101357.66
2023-05-21T09:22:03.356Z,101363.13
2023-05-21T09:27:06.902Z,101366.91
2023-05-21T09:32:10.232Z,101354.81
2023-05-21T09:37:20.162Z,101365.88
2023-05-21T09:42:30.534Z,101362.00
2023-05-21T09:47:34.775Z,101344.22
2023-05-21T09:52:36.907Z,101358.00
2023-05-21T09:57:42.676Z,101351.00
2023-05-21T10:02:48.466Z,101343.44
2023-05-21T10:07:52.097Z,101334.91
2023-05-21T10:12:58.906Z,101332.41
2023-05-21T10:18:03.914Z,101330.41
2023-05-21T10:23:06.109Z,101314.00
2023-05-21T10:33:34.907Z,101303.75
2023-05-21T10:38:38.662Z,101305.44
2023-05-21T10:44:02.914Z,101303.59
2023-05-21T10:49:24.092Z,101294.53
2023-05-21T10:55:07.651Z,101296.97
2023-05-21T11:00:11.900Z,101292.44
2023-05-21T11:05:15.096Z,101284.31
2023-05-21T11:10:37.860Z,101279.34
2023-05-21T11:16:08.388Z,101272.16
2023-05-21T11:21:12.465Z,101270.22
2023-05-21T11:26:15.562Z,101270.44
2023-05-21T11:31:24.463Z,101279.72
2023-05-21T11:36:27.590Z,101259.56
2023-05-21T11:41:29.791Z,101261.03
2023-05-21T11:46:32.058Z,101268.53
2023-05-21T11:51:36.161Z,101264.75
2023-05-21T11:56:38.929Z,101271.19
2023-05-21T12:01:42.471Z,101261.78
2023-05-21T12:06:45.680Z,101261.81
2023-05-21T12:11:47.510Z,101252.47
2023-05-21T12:16:50.533Z,101255.75
2023-05-21T12:21:53.921Z,101249.16
2023-05-21T12:26:56.351Z,101247.88
2023-05-21T12:31:59.972Z,101247.41
2023-05-21T12:37:04.662Z,101254.13
2023-05-21T12:42:07.253Z,101244.25
2023-05-21T12:47:10.992Z,101238.69
2023-05-21T12:52:18.712Z,101243.19
2023-05-21T12:57:22.797Z,101248.13
2023-05-21T13:02:26.358Z,101242.16
2023-05-21T13:07:31.371Z,101240.28
2023-05-21T13:12:34.771Z,101235.91
2023-05-21T13:17:37.004Z,101237.13
2023-05-21T13:22:41.836Z,101216.19
2023-05-21T13:27:44.641Z,101231.88
2023-05-21T13:32:47.890Z,101225.50
2023-05-21T13:37:51.664Z,101223.31
2023-05-21T13:42:53.495Z,101217.53
2023-05-21T13:47:55.707Z,101210.97
2023-05-21T13:52:59.566Z,101205.16
2023-05-21T13:58:01.357Z,101200.75
2023-05-21T14:03:04.086Z,101189.84
2023-05-21T14:08:07.978Z,101190.97
2023-05-21T14:13:19.005Z,101199.03
2023-05-21T14:18:21.582Z,101198.13
2023-05-21T14:23:25.425Z,101203.88
2023-05-21T14:28:27.671Z,101204.38
2023-05-21T14:33:31.558Z,101208.50
2023-05-21T14:38:35.024Z,101208.72
2023-05-21T14:43:37.218Z,101195.28
2023-05-21T14:48:39.212Z,101201.09
2023-05-21T14:53:42.957Z,101187.63
2023-05-21T14:58:45.111Z,101203.03
2023-05-21T15:03:47.488Z,101202.81
2023-05-21T15:08:50.955Z,101200.94
2023-05-21T15:13:52.786Z,101201.19
2023-05-21T15:18:55.171Z,101193.81
2023-05-21T15:23:58.657Z,101190.97
2023-05-21T15:29:00.757Z,101192.50
2023-05-21T15:34:02.863Z,101187.25
2023-05-21T15:39:06.437Z,101193.81
2023-05-21T15:44:08.302Z,101181.41
2023-05-21T15:49:10.655Z,101183.75
2023-05-21T15:54:14.377Z,101167.88
2023-05-21T15:59:16.716Z,101179.47
2023-05-21T16:04:18.821Z,101172.81
2023-05-21T16:09:22.512Z,101175.66
2023-05-21T16:14:24.406Z,101173.78
2023-05-21T16:19:26.497Z,101181.88
2023-05-21T16:24:29.683Z,101169.19
2023-05-21T16:29:31.653Z,101162.97
2023-05-21T16:34:33.960Z,101160.00
2023-05-21T16:39:37.121Z,101175.66
2023-05-21T16:44:39.170Z,101171.91
2023-05-21T16:49:41.330Z,101172.53
2023-05-21T16:54:45.788Z,101170.81
2023-05-21T16:59:48.049Z,101159.97
2023-05-21T17:04:50.320Z,101168.78
2023-05-21T17:09:53.745Z,101169.56
2023-05-21T17:14:56.064Z,101174.28
2023-05-21T17:19:58.426Z,101172.72
2023-05-21T17:25:01.975Z,101168.50
2023-05-21T17:30:04.912Z,101167.75
2023-05-21T17:35:08.583Z,101180.69
2023-05-21T17:40:12.774Z,101174.84
2023-05-21T17:45:14.559Z,101172.44
2023-05-21T17:50:16.965Z,101172.47
2023-05-21T17:55:20.406Z,101176.88
2023-05-21T18:00:22.366Z,101180.88
2023-05-21T18:05:24.555Z,101179.72
2023-05-21T18:10:28.129Z,101186.09
2023-05-21T18:15:30.132Z,101194.84
2023-05-21T18:20:32.541Z,101185.72
2023-05-21T18:25:36.001Z,101190.78
2023-05-21T18:30:38.552Z,101190.53
2023-05-21T18:35:41.271Z,101194.38
2023-05-21T18:40:44.947Z,101199.19
2023-05-21T18:45:47.551Z,101198.78
2023-05-21T18:50:49.372Z,101209.34
2023-05-21T18:55:52.971Z,101206.06
2023-05-21T19:00:55.190Z,101210.38
2023-05-21T19:05:57.431Z,101213.03
2023-05-21T19:11:00.901Z,101219.44
2023-05-21T19:16:03.152Z,101234.75
2023-05-21T19:21:05.297Z,101242.63
2023-05-21T19:26:08.844Z,101250.47
2023-05-21T19:31:10.639Z,101255.31
2023-05-21T19:36:12.485Z,101257.59
2023-05-21T19:41:15.821Z,101261.09
2023-05-21T19:46:20.352Z,101249.72
2023-05-21T19:51:22.727Z,101250.06
2023-05-21T19:56:26.339Z,101248.94
2023-05-21T20:01:28.784Z,101251.00
2023-05-21T20:06:31.282Z,101259.13
2023-05-21T20:11:34.602Z,101256.78
2023-05-21T20:16:36.489Z,101262.41
2023-05-21T20:21:38.572Z,101255.41
2023-05-21T20:26:42.306Z,101265.31
2023-05-21T20:31:44.832Z,101259.41
2023-05-21T20:36:46.588Z,101251.47
2023-05-21T20:41:50.287Z,101256.88
2023-05-21T20:46:52.977Z,101249.25
2023-05-21T20:51:55.286Z,101253.06
2023-05-21T20:56:58.787Z,101258.06
2023-05-21T21:02:00.977Z,101259.25
2023-05-21T21:07:03.376Z,101257.03
2023-05-21T21:12:24.109Z,101262.63
2023-05-21T21:17:28.090Z,101267.53
2023-05-21T21:22:31.037Z,101268.31
2023-05-21T21:27:34.573Z,101257.41
2023-05-21T21:32:36.549Z,101265.00
2023-05-21T21:37:38.434Z,101274.28
2023-05-21T21:42:42.531Z,101273.78
2023-05-21T21:47:44.520Z,101273.19
2023-05-21T21:52:47.375Z,101265.19
2023-05-21T21:57:51.083Z,101275.97
2023-05-21T22:02:53.470Z,101268.75
2023-05-21T22:07:55.682Z,101269.84
2023-05-21T22:12:59.195Z,101271.72
2023-05-21T22:18:02.406Z,101274.72
2023-05-21T22:23:04.912Z,101273.84
2023-05-21T22:28:08.115Z,101275.06
2023-05-21T22:33:10.318Z,101278.22
2023-05-21T22:38:12.095Z,101269.03
2023-05-21T22:43:15.604Z,101277.25
2023-05-21T22:48:17.712Z,101272.00
2023-05-21T22:53:19.848Z,101272.03
2023-05-21T22:58:23.304Z,101274.59
2023-05-21T23:03:25.571Z,101274.44
2023-05-21T23:08:27.730Z,101269.22
2023-05-21T23:13:31.377Z,101266.97
2023-05-21T23:18:33.478Z,101261.66
2023-05-21T23:23:35.501Z,101262.94
2023-05-21T23:28:39.026Z,101268.84
2023-05-21T23:33:41.214Z,101260.44
2023-05-21T23:38:43.337Z,101241.03
2023-05-21T23:43:46.713Z,101252.75
2023-05-21T23:48:48.968Z,101252.69
2023-05-21T23:53:50.666Z,101252.03
2023-05-21T23:58:54.235Z,101256.34
